createdAt,value
2023-01-13T00:01:28.313Z,3
2023-01-13T00:17:03.118Z,2.3
2023-01-13T00:32:37.883Z,3.2
2023-01-13T00:48:12.655Z,0.5
2023-01-13T01:03:47.480Z,1.7
2023-01-13T01:19:22.318Z,1.5
2023-01-13T01:34:57.136Z,2.4
2023-01-13T01:50:31.998Z,4.6
2023-01-13T02:06:06.786Z,1.2
2023-01-13T02:21:41.560Z,1.3
2023-01-13T02:37:16.351Z,2.2
2023-01-13T02:52:51.173Z,1.9
2023-01-13T03:08:25.868Z,1
2023-01-13T03:24:00.370Z,1
2023-01-13T03:39:34.886Z,0.9
2023-01-13T03:55:09.410Z,1.9
2023-01-13T04:10:43.957Z,1.3
2023-01-13T04:26:18.453Z,0.7
2023-01-13T04:41:53.070Z,0.9
2023-01-13T04:57:27.574Z,1.1
2023-01-13T05:13:02.100Z,0.9
2023-01-13T05:28:36.618Z,1
2023-01-13T05:44:11.175Z,2.8
2023-01-13T05:59:45.676Z,1
2023-01-13T06:15:20.219Z,0.8
2023-01-13T06:30:54.764Z,1.5
2023-01-13T06:46:29.527Z,5.7
2023-01-13T07:02:04.798Z,1.4
2023-01-13T07:17:39.752Z,11.2
2023-01-13T07:33:14.283Z,9.1
2023-01-13T07:48:48.817Z,4.3
2023-01-13T08:04:23.485Z,1.3
2023-01-13T08:19:58.028Z,1.7
2023-01-13T08:35:32.630Z,3.4
2023-01-13T08:51:07.269Z,2.3
2023-01-13T09:06:41.815Z,3.2
2023-01-13T09:22:16.367Z,1.2
2023-01-13T09:37:50.884Z,5.9
2023-01-13T09:53:25.516Z,12.5
2023-01-13T10:09:00.079Z,6.4
2023-01-13T10:24:34.638Z,6.8
2023-01-13T10:40:09.244Z,2.9
2023-01-13T10:55:43.806Z,4
2023-01-13T11:11:18.391Z,6.5
2023-01-13T11:26:52.986Z,12.9
2023-01-13T11:42:27.737Z,3.4
2023-01-13T11:58:02.285Z,6.5
2023-01-13T12:13:36.851Z,4
2023-01-13T12:29:11.594Z,8.3
2023-01-13T12:44:45.917Z,2.5
2023-01-13T13:00:20.451Z,3.4
2023-01-13T13:15:55.053Z,2.9
2023-01-13T13:31:29.659Z,2
2023-01-13T13:47:04.393Z,3.2
2023-01-13T14:02:39.000Z,3.1
2023-01-13T14:18:13.474Z,6.8
2023-01-13T14:33:48.024Z,4
2023-01-13T14:49:22.562Z,10.7
2023-01-13T15:04:57.136Z,6.6
2023-01-13T15:20:31.703Z,3.6
2023-01-13T15:36:06.158Z,7.3
2023-01-13T15:51:40.820Z,7.3
2023-01-13T16:07:16.074Z,15.1
2023-01-13T16:22:50.634Z,35.6
2023-01-13T16:38:25.169Z,35.4
2023-01-13T16:53:59.754Z,10.6
2023-01-13T17:09:34.312Z,34.5
2023-01-13T17:25:08.841Z,29.3
2023-01-13T17:40:43.357Z,14.9
2023-01-13T17:56:17.922Z,18.2
2023-01-13T18:11:52.482Z,24.6
2023-01-13T18:27:27.022Z,22
2023-01-13T18:43:01.548Z,15.3
2023-01-13T18:58:36.083Z,10.3
2023-01-13T19:14:10.613Z,13.4
2023-01-13T19:29:53.004Z,13
2023-01-13T19:45:27.663Z,16.2
2023-01-13T20:01:02.472Z,10.4
2023-01-13T20:16:37.207Z,9.8
2023-01-13T20:32:11.792Z,8.2
2023-01-13T20:47:46.393Z,7.3
2023-01-13T21:03:20.919Z,19.1
2023-01-13T21:18:55.493Z,7.1
2023-01-13T21:34:29.993Z,11
2023-01-13T21:50:04.589Z,14.7
2023-01-13T22:05:39.207Z,11.9
2023-01-13T22:21:13.791Z,11.2
2023-01-13T22:36:48.350Z,8.3
2023-01-13T22:52:22.894Z,6.7
2023-01-13T23:07:57.379Z,7.2
2023-01-13T23:23:31.884Z,4.1
2023-01-13T23:39:06.475Z,3.9
2023-01-13T23:54:41.011Z,4.2
